Richmond South's Hourly Summary for Wednesday, May 9, 2018
Hour Temp
(f)
RH
(%)
Solar Rad.
(MJ/m2)
Rainfall
(in)
Wind
(mph)
5/9/2018 12:00 AM 68 70 0 0 3.15
5/9/2018 1:00 AM 67 77 0 0 0.09
5/9/2018 2:00 AM 66 82 0 0 0.03
5/9/2018 3:00 AM 64 86 0 0 0.93
5/9/2018 4:00 AM 63 89 0 0 0.56
5/9/2018 5:00 AM 63 92 0 0 0
5/9/2018 6:00 AM 61 92 0 0 0.11
5/9/2018 7:00 AM 62 92 0.03 0 0
5/9/2018 8:00 AM 66 86 0.2 0 0
5/9/2018 9:00 AM 72 75 0.84 0 2.4
5/9/2018 10:00 AM 76 60 1.92 0 7.02
5/9/2018 11:00 AM 80 50 2.58 0 8.97
5/9/2018 12:00 PM 83 42 3.08 0 8.44
5/9/2018 1:00 PM 85 33 2.89 0 9.29
5/9/2018 2:00 PM 87 29 3.49 0 9.7
5/9/2018 3:00 PM 89 24 3.17 0 10.55
5/9/2018 4:00 PM 89 24 3.11 0 11.36
5/9/2018 5:00 PM 89 23 2.34 0 11.63
5/9/2018 6:00 PM 87 21 1.62 0 12.38
5/9/2018 7:00 PM 85 29 0.98 0 13.56
5/9/2018 8:00 PM 81 34 0.31 0 10.09
5/9/2018 9:00 PM 76 47 0.01 0 6.62
5/9/2018 10:00 PM 72 60 0 0 5.39
5/9/2018 11:00 PM 70 67 0 0 3.03
Data Summary 75 57 26.57 0.00 5.64